LEPALEGE

Guest
Details From LEPA - Palma De Mallorca
To LEGE - Girona
Flight Number -
Tags Generated
Created
Modified
Stats Distance 141 nm / 261 km
Max Altitude 0 ft / 0 m
Waypoints 2
Social Downloads 4
Likes 0
Share VATSIM

Download

Looking for another format? Having issues loading an existing format? Contact us
Advertisement - Login to hide

Notes

Generated

Route

LEPA LEGE

ID Type Via Altitude Latitude Longitude Leg Dist Tot Dist Heading (true) Name
O LEPA APT - 0 ft / 0 m 39.54873˚ 2.71867˚ - 0 nm - -
O LEGE APT - 0 ft / 0 m 41.89491˚ 2.75826˚ 140 nm 140 nm 1° / 1° -

Altitude Profile

Advertisement - Login to hide

LEPA

Details ICAO LEPA (PMI)
Name Palma De Mallorca
Region Spain
Timezone Europe/Madrid (UTC+2.0)
Stats Elevation 24 ft / 7 m (AMSL)
Location 39.552536° 2.734958°
Runways 3
Magnetic Variation 1.033° E

METAR

LEPA 221230Z 22011KT 9999 FEW018 FEW025CB 22/17 Q1015 NOSIG

Decode

TAF

TAF TAF LEPA 221100Z 2212/2312 22010KT 9999 FEW025 TX23/2212Z TN13/2306Z PROB40 TEMPO 2212/2218 FEW025CB BECMG 2219/2222 VRB04KT PROB30 TEMPO 2300/2306 2000 BR BECMG 2310/2312 23010KT

Decode

Departure Runways

ID Width Length Bearing (true) Bearing (mag) Surface Threshold Offset Overrun Length
06C 148 ft / 45 m 8,181 ft / 2,494 m 58.47° 57.44° Asphalt 0 ft / 0 m 0 ft / 0 m
06L 148 ft / 45 m 10,716 ft / 3,266 m 58.46° 57.43° Asphalt 0 ft / 0 m 0 ft / 0 m
06R 148 ft / 45 m 9,832 ft / 2,997 m 58.48° 57.45° Asphalt 1,345 ft / 410 m 0 ft / 0 m
24C 148 ft / 45 m 8,181 ft / 2,494 m 238.49° 237.46° Asphalt 0 ft / 0 m 0 ft / 0 m
24L 148 ft / 45 m 9,832 ft / 2,997 m 238.50° 237.47° Asphalt 0 ft / 0 m 197 ft / 60 m
24R 148 ft / 45 m 10,716 ft / 3,266 m 238.48° 237.45° Asphalt 230 ft / 70 m 0 ft / 0 m

LEGE

Details ICAO LEGE (GRO)
Name Girona
Region Spain
Timezone Europe/Madrid (UTC+2.0)
Stats Elevation 403 ft / 123 m (AMSL)
Location 41.905202° 2.762133°
Runways 1
Magnetic Variation 1.027° E

METAR

LEGE 221230Z 17009KT 120V210 9999 VCTS SCT030CB SCT050 23/15 Q1013

Decode

TAF

TAF LEGE 221100Z 2212/2312 VRB04KT 9999 SCT035 TX25/2213Z TN12/2306Z TEMPO 2212/2217 18010KT PROB40 TEMPO 2212/2219 VRB20G30KT 4000 TSRA SCT030CB PROB40 TEMPO 2300/2306 2000 BR BECMG 2309/2312 18010KT

Decode

Destination Runways

ID Width Length Bearing (true) Bearing (mag) Surface Threshold Offset Overrun Length
02 148 ft / 45 m 7,880 ft / 2,402 m 15.50° 14.47° Asphalt 0 ft / 0 m 210 ft / 64 m
20 148 ft / 45 m 7,880 ft / 2,402 m 195.50° 194.47° Asphalt 0 ft / 0 m 200 ft / 61 m

Approach Navaids

Runway Type Ident Frequency Range Bearing (true) Bearing (mag) Slope Elevation
20 Localiser IGN 109.90 MHz 18 nm / 33 km 195.60° 194.57° - 468 ft / 143 m (AMSL)
20 Glidescope IGN 109.90 MHz 10 nm / 19 km 195.50° 194.47° 3.00° 403 ft / 123 m (AMSL)
20 DME IGN 109.90 MHz 18 nm / 33 km - - - 463 ft / 141 m (AMSL)

Popular Alternatives